Time;durP1;ratioP1;P1;durP2;ratioP2;P2;SDS_P1;SDS_P2;PMS_P1;PMS_P2;Temp;Humidity;BMP_temperature;BMP_pressure;BME280_temperature;BME280_humidity;BME280_pressure;Samples;Min_cycle;Max_cycle;Signal;HPM_P1;HPM_P2
2023/03/22 00:00:47;;;;;;;6.78;4.55;;;9.50;89.40;;;;;;5078338;28;20201;-88
2023/03/22 00:03:14;;;;;;;5.07;4.57;;;9.40;89.90;;;;;;5073048;28;20212;-88
2023/03/22 00:05:41;;;;;;;6.45;4.88;;;9.40;90.20;;;;;;5074814;28;20263;-88
2023/03/22 00:08:08;;;;;;;6.53;4.95;;;9.30;90.20;;;;;;5045081;28;20194;-90
2023/03/22 00:10:36;;;;;;;5.03;4.45;;;9.40;90.50;;;;;;5077562;28;20204;-88
2023/03/22 00:13:04;;;;;;;6.10;4.68;;;9.40;90.20;;;;;;5084707;28;20193;-89
2023/03/22 00:15:32;;;;;;;5.60;4.32;;;9.40;90.40;;;;;;5052046;28;20201;-88
2023/03/22 00:18:01;;;;;;;8.82;4.10;;;9.30;90.10;;;;;;5076059;28;20197;-88
2023/03/22 00:20:30;;;;;;;5.72;4.15;;;9.30;90.10;;;;;;5074797;28;20224;-88
2023/03/22 00:22:57;;;;;;;7.43;4.50;;;9.30;90.20;;;;;;5068776;28;20241;-89
2023/03/22 00:25:24;;;;;;;4.70;4.03;;;9.20;90.50;;;;;;5043340;28;20624;-89
2023/03/22 00:27:50;;;;;;;5.30;4.28;;;9.20;90.80;;;;;;5079713;28;20650;-88
2023/03/22 00:30:18;;;;;;;5.93;4.45;;;9.20;90.50;;;;;;5056061;28;20201;-89
2023/03/22 00:32:45;;;;;;;5.13;3.97;;;9.20;90.50;;;;;;5073935;28;20564;-89
2023/03/22 00:35:16;;;;;;;5.47;4.47;;;9.30;90.50;;;;;;5055698;28;20220;-90
2023/03/22 00:37:43;;;;;;;5.13;4.28;;;9.30;90.50;;;;;;5043243;28;20247;-88
2023/03/22 00:40:13;;;;;;;6.32;4.30;;;9.30;90.50;;;;;;5052652;28;20233;-89
2023/03/22 00:42:41;;;;;;;5.93;4.13;;;9.30;90.50;;;;;;5074862;28;20205;-89
2023/03/22 00:45:15;;;;;;;6.85;4.70;;;9.40;90.50;;;;;;5056213;28;20193;-89
2023/03/22 00:47:42;;;;;;;5.05;4.55;;;9.40;90.50;;;;;;5042482;28;20251;-88
2023/03/22 00:50:10;;;;;;;6.40;4.70;;;9.40;90.50;;;;;;5072156;28;20209;-88
2023/03/22 00:52:39;;;;;;;5.38;4.88;;;9.50;90.50;;;;;;5054553;28;20212;-89
2023/03/22 00:55:26;;;;;;;6.05;5.05;;;9.40;90.50;;;;;;5082487;28;20205;-89
2023/03/22 00:57:53;;;;;;;6.38;5.35;;;9.40;90.50;;;;;;5057343;28;20209;-88
2023/03/22 01:00:20;;;;;;;7.05;5.13;;;9.30;90.50;;;;;;5074626;28;20311;-88
2023/03/22 01:02:47;;;;;;;7.00;5.45;;;9.30;90.50;;;;;;5073900;28;20263;-89
2023/03/22 01:07:57;;;;;;;6.05;5.22;;;9.30;90.70;;;;;;5050564;28;20207;-89
2023/03/22 01:10:24;;;;;;;6.50;4.97;;;9.40;90.60;;;;;;5074994;28;20255;-89
2023/03/22 01:12:51;;;;;;;5.63;4.85;;;9.40;90.60;;;;;;5077861;28;20558;-89
2023/03/22 01:15:18;;;;;;;6.43;5.53;;;9.40;90.50;;;;;;5057108;28;20205;-88
2023/03/22 01:17:45;;;;;;;7.47;5.30;;;9.50;90.60;;;;;;5041367;28;20202;-89
2023/03/22 01:20:13;;;;;;;6.13;5.35;;;9.50;90.60;;;;;;5083914;28;20687;-89
2023/03/22 01:51:15;;;;;;;5.22;4.72;;;9.40;90.60;;;;;;5023082;28;20725;-89
2023/03/22 01:53:50;;;;;;;6.40;5.38;;;9.40;90.50;;;;;;5016770;28;20213;-89
2023/03/22 01:56:19;;;;;;;5.45;4.63;;;9.30;90.50;;;;;;5024212;28;20207;-89
2023/03/22 01:58:46;;;;;;;6.95;4.80;;;9.20;90.50;;;;;;5033513;28;20202;-89
2023/03/22 02:01:13;;;;;;;6.28;4.57;;;9.20;90.50;;;;;;5015559;28;20663;-89
2023/03/22 02:06:31;;;;;;;5.35;4.38;;;9.10;90.50;;;;;;5033503;28;20199;-89
2023/03/22 02:08:58;;;;;;;5.32;4.45;;;9.20;90.50;;;;;;5034277;28;20273;-89
2023/03/22 02:11:30;;;;;;;6.68;4.63;;;9.40;90.50;;;;;;5013145;28;20244;-89
2023/03/22 02:14:21;;;;;;;5.85;4.63;;;9.40;90.00;;;;;;5041942;28;20281;-89
2023/03/22 02:16:55;;;;;;;6.85;4.50;;;9.40;89.70;;;;;;5034953;28;20584;-89
2023/03/22 02:20:16;;;;;;;5.95;4.63;;;9.30;90.30;;;;;;5032812;28;20268;-89
2023/03/22 02:23:22;;;;;;;5.45;4.88;;;9.10;90.50;;;;;;5018487;28;20601;-89
2023/03/22 02:26:17;;;;;;;5.22;4.63;;;8.90;90.90;;;;;;5038909;28;20255;-89
2023/03/22 02:28:50;;;;;;;7.53;5.60;;;8.80;91.30;;;;;;5003048;28;20206;-90
2023/03/22 02:31:49;;;;;;;7.15;5.18;;;8.80;91.50;;;;;;5029035;28;20213;-89
2023/03/22 02:34:53;;;;;;;5.40;4.68;;;8.70;91.70;;;;;;5047999;28;20534;-89
2023/03/22 02:38:06;;;;;;;5.30;4.57;;;8.60;91.80;;;;;;5038064;28;20251;-89
2023/03/22 02:41:01;;;;;;;5.45;4.55;;;8.60;91.90;;;;;;5047915;28;20599;-89
2023/03/22 02:43:37;;;;;;;6.25;4.90;;;8.60;92.10;;;;;;5043338;28;20202;-89
2023/03/22 02:46:26;;;;;;;10.35;5.07;;;8.50;92.30;;;;;;5046236;28;20576;-89
2023/03/22 02:49:06;;;;;;;6.78;4.70;;;8.50;92.20;;;;;;5033584;28;20291;-89
2023/03/22 02:51:38;;;;;;;6.40;4.97;;;8.50;92.30;;;;;;5046996;28;20202;-89
2023/03/22 02:54:10;;;;;;;5.82;4.78;;;8.50;92.50;;;;;;5031234;28;20654;-89
2023/03/22 02:56:44;;;;;;;5.97;4.90;;;8.50;92.50;;;;;;5033350;28;20194;-89
2023/03/22 02:59:12;;;;;;;8.38;7.28;;;8.40;92.70;;;;;;5049059;28;20198;-89
2023/03/22 03:01:47;;;;;;;6.53;5.63;;;8.30;92.90;;;;;;5052265;28;20201;-89
2023/03/22 03:04:18;;;;;;;7.22;5.75;;;8.20;93.10;;;;;;5050024;28;20206;-89
2023/03/22 03:06:48;;;;;;;8.73;5.00;;;8.20;93.20;;;;;;5051271;28;20195;-89
2023/03/22 03:09:19;;;;;;;6.82;4.72;;;8.20;93.20;;;;;;5044420;28;20202;-89
2023/03/22 03:11:50;;;;;;;6.07;4.70;;;8.20;93.30;;;;;;5018903;28;20196;-89
2023/03/22 03:14:22;;;;;;;7.00;4.78;;;8.20;93.40;;;;;;5033415;28;20210;-89
2023/03/22 03:16:59;;;;;;;5.35;4.70;;;8.30;93.20;;;;;;5048509;28;20197;-90
2023/03/22 03:19:32;;;;;;;5.65;4.70;;;8.20;93.10;;;;;;5041629;28;20281;-89
2023/03/22 03:22:08;;;;;;;8.43;4.93;;;8.20;93.30;;;;;;5033649;28;20276;-88
2023/03/22 03:25:04;;;;;;;4.75;4.22;;;8.10;93.40;;;;;;5020518;28;20193;-89
2023/03/22 03:30:25;;;;;;;5.93;4.38;;;8.10;93.70;;;;;;5047748;28;20205;-89
2023/03/22 03:32:58;;;;;;;5.88;4.43;;;8.00;93.60;;;;;;5048734;28;20208;-89
2023/03/22 03:35:29;;;;;;;6.15;4.35;;;7.90;94.00;;;;;;5016856;28;20202;-88
2023/03/22 03:38:02;;;;;;;6.35;4.72;;;7.90;94.10;;;;;;5033832;28;20260;-88
2023/03/22 03:40:30;;;;;;;8.18;4.88;;;7.80;94.20;;;;;;5035447;28;20221;-89
2023/03/22 03:45:43;;;;;;;5.10;4.50;;;7.90;94.30;;;;;;5042571;28;20257;-88
2023/03/22 03:48:18;;;;;;;8.27;4.22;;;7.90;94.20;;;;;;5051704;28;20209;-90
2023/03/22 03:50:46;;;;;;;6.10;4.53;;;7.90;94.20;;;;;;5034749;28;20232;-88
2023/03/22 03:53:13;;;;;;;4.88;4.47;;;7.80;94.30;;;;;;5034166;28;20241;-88
2023/03/22 03:55:40;;;;;;;5.03;4.53;;;7.80;94.40;;;;;;5040165;28;20205;-88
2023/03/22 03:58:09;;;;;;;4.78;4.35;;;7.70;94.60;;;;;;5030744;28;20247;-88
2023/03/22 04:00:38;;;;;;;7.65;4.70;;;7.70;94.80;;;;;;5049113;28;20296;-88
2023/03/22 04:03:06;;;;;;;5.43;4.57;;;7.60;95.00;;;;;;5051195;28;20681;-88
2023/03/22 04:05:33;;;;;;;6.05;4.57;;;7.50;95.60;;;;;;5039356;28;20228;-88
2023/03/22 04:08:00;;;;;;;5.57;4.35;;;7.50;95.60;;;;;;5037150;28;20202;-88
2023/03/22 04:10:27;;;;;;;5.15;4.28;;;7.50;95.40;;;;;;5052435;28;20203;-88
2023/03/22 04:12:54;;;;;;;5.25;4.13;;;7.50;95.30;;;;;;5050699;28;20198;-88
2023/03/22 04:15:23;;;;;;;6.13;4.22;;;7.50;95.40;;;;;;5043492;28;20216;-88
2023/03/22 04:17:54;;;;;;;5.53;4.40;;;7.50;95.40;;;;;;5047481;28;20243;-88
2023/03/22 04:20:21;;;;;;;6.05;4.47;;;7.50;95.80;;;;;;5056133;28;20229;-89
2023/03/22 04:22:48;;;;;;;5.40;4.47;;;7.40;95.60;;;;;;5039296;28;20561;-87
2023/03/22 04:25:16;;;;;;;10.40;6.43;;;7.40;95.60;;;;;;5060527;28;20202;-88
2023/03/22 04:27:46;;;;;;;13.70;7.80;;;7.40;95.60;;;;;;5040043;28;20202;-88
2023/03/22 04:30:17;;;;;;;6.68;5.18;;;7.40;95.60;;;;;;5041359;28;20198;-89
2023/03/22 04:32:46;;;;;;;19.45;11.73;;;7.30;95.60;;;;;;5060492;28;20204;-88
2023/03/22 04:35:13;;;;;;;18.23;11.48;;;7.30;95.60;;;;;;5030307;28;20198;-89
2023/03/22 04:37:40;;;;;;;20.67;12.80;;;7.30;95.60;;;;;;5056011;28;20194;-88
2023/03/22 04:40:08;;;;;;;18.80;10.13;;;7.30;95.60;;;;;;5037994;28;20226;-88
2023/03/22 04:42:35;;;;;;;15.75;9.60;;;7.30;95.60;;;;;;5052507;28;20210;-88
2023/03/22 04:45:03;;;;;;;14.73;8.13;;;7.20;95.50;;;;;;5038404;28;20213;-88
2023/03/22 04:47:30;;;;;;;11.65;7.85;;;7.20;95.70;;;;;;5034473;28;20585;-88
2023/03/22 04:49:58;;;;;;;11.52;6.70;;;7.10;96.30;;;;;;5053762;28;20209;-88
2023/03/22 04:52:25;;;;;;;7.13;4.85;;;7.20;96.40;;;;;;5053352;28;20206;-89
2023/03/22 04:54:52;;;;;;;6.60;5.35;;;7.20;96.20;;;;;;5053487;28;20577;-89
2023/03/22 04:57:20;;;;;;;8.60;5.38;;;7.20;96.20;;;;;;5055119;28;20571;-88
2023/03/22 04:59:46;;;;;;;5.95;4.30;;;7.20;96.30;;;;;;5048845;28;20202;-88
2023/03/22 05:02:13;;;;;;;6.43;4.07;;;7.20;96.10;;;;;;5052639;28;20209;-88
2023/03/22 05:04:40;;;;;;;4.43;4.03;;;7.30;95.90;;;;;;5052754;28;20220;-88
2023/03/22 05:07:08;;;;;;;7.28;3.78;;;7.30;95.60;;;;;;5049749;28;20209;-88
2023/03/22 05:09:35;;;;;;;7.10;3.92;;;7.30;95.60;;;;;;5047262;28;20225;-88
2023/03/22 05:12:02;;;;;;;4.45;3.65;;;7.30;95.80;;;;;;5035813;28;20207;-88
2023/03/22 05:14:29;;;;;;;5.03;3.55;;;7.20;96.00;;;;;;5037349;28;20206;-88
2023/03/22 05:16:56;;;;;;;6.20;3.50;;;7.20;96.20;;;;;;5046022;28;20685;-88
2023/03/22 05:19:23;;;;;;;5.05;3.33;;;7.20;96.30;;;;;;5021189;28;20202;-88
2023/03/22 05:21:56;;;;;;;5.38;3.47;;;7.20;95.80;;;;;;5037662;28;20230;-88
2023/03/22 05:24:25;;;;;;;8.30;3.60;;;7.30;95.60;;;;;;5055379;28;20642;-89
2023/03/22 05:26:52;;;;;;;6.43;3.33;;;7.40;95.60;;;;;;5049541;28;20201;-87
2023/03/22 05:29:20;;;;;;;3.53;3.22;;;7.40;95.60;;;;;;5018104;28;20209;-88
2023/03/22 05:31:47;;;;;;;4.15;3.10;;;7.40;95.60;;;;;;5054746;28;20190;-88
2023/03/22 05:34:14;;;;;;;5.57;3.60;;;7.50;95.60;;;;;;5036947;28;20198;-88
2023/03/22 05:36:41;;;;;;;4.72;3.22;;;7.50;95.60;;;;;;5037655;28;20206;-87
2023/03/22 05:39:09;;;;;;;5.60;3.42;;;7.40;95.60;;;;;;5047666;28;20209;-88
2023/03/22 05:41:38;;;;;;;4.38;3.30;;;7.40;95.60;;;;;;5053775;28;20222;-87
2023/03/22 05:44:05;;;;;;;4.30;3.35;;;7.40;95.60;;;;;;5050465;28;20195;-89
2023/03/22 05:46:32;;;;;;;5.00;3.42;;;7.40;95.90;;;;;;5042126;28;20254;-85
2023/03/22 05:52:52;;;;;;;5.55;3.35;;;7.40;95.60;;;;;;5060577;28;20181;-88
2023/03/22 05:58:17;;;;;;;7.70;3.20;;;7.50;95.60;;;;;;4974238;28;20195;-87
2023/03/22 06:00:44;;;;;;;4.05;2.90;;;7.50;95.40;;;;;;5037215;28;20232;-87
2023/03/22 06:03:30;;;;;;;6.55;2.90;;;7.60;95.40;;;;;;5057755;28;20197;-88
2023/03/22 06:30:24;;;;;;;4.97;2.90;;;8.10;94.40;;;;;;5056146;28;20684;-88
2023/03/22 06:32:51;;;;;;;3.22;2.90;;;8.20;94.40;;;;;;5051141;28;20194;-88
2023/03/22 06:35:18;;;;;;;8.60;3.20;;;8.30;94.40;;;;;;5045288;28;20206;-88
2023/03/22 06:40:26;;;;;;;10.82;3.20;;;8.50;93.90;;;;;;5026733;28;20202;-91
2023/03/22 06:46:01;;;;;;;4.68;3.10;;;9.00;93.40;;;;;;5045141;28;20277;-88
2023/03/22 06:48:39;;;;;;;2.88;2.35;;;9.40;92.80;;;;;;5054628;28;20221;-89
2023/03/22 06:54:27;;;;;;;6.25;2.20;;;10.30;89.00;;;;;;5054757;28;20235;-88
2023/03/22 06:56:56;;;;;;;5.72;2.90;;;10.70;86.00;;;;;;5016975;28;20199;-90
2023/03/22 07:04:55;;;;;;;4.78;2.58;;;12.20;66.90;;;;;;5003590;28;20581;-90
2023/03/22 07:07:22;;;;;;;11.27;2.70;;;12.70;63.20;;;;;;5043523;28;20213;-91
2023/03/22 07:09:50;;;;;;;9.20;2.30;;;13.10;57.10;;;;;;5032853;28;20206;-91
2023/03/22 07:12:17;;;;;;;2.35;2.05;;;13.40;52.70;;;;;;5034790;28;21116;-92
2023/03/22 07:14:44;;;;;;;4.60;1.90;;;13.40;47.20;;;;;;5038243;28;20201;-92
2023/03/22 07:17:13;;;;;;;2.13;1.88;;;13.20;47.20;;;;;;5034780;28;20209;-91
2023/03/22 07:19:41;;;;;;;2.83;1.90;;;13.10;49.60;;;;;;5056856;28;20209;-94
2023/03/22 07:22:08;;;;;;;3.08;1.90;;;13.10;48.90;;;;;;5051921;28;20280;-92
2023/03/22 07:24:35;;;;;;;2.35;1.60;;;13.10;45.70;;;;;;5037514;28;20220;-92
2023/03/22 07:27:02;;;;;;;6.43;1.60;;;12.90;46.60;;;;;;5054405;28;20202;-92
2023/03/22 07:29:29;;;;;;;3.88;1.55;;;12.80;53.60;;;;;;5046988;28;20198;-91
2023/03/22 07:31:57;;;;;;;2.00;1.80;;;12.80;53.20;;;;;;5032734;28;20247;-91
2023/03/22 07:34:26;;;;;;;2.65;1.85;;;12.90;53.00;;;;;;5054250;28;20198;-91
2023/03/22 07:36:55;;;;;;;4.05;2.00;;;13.00;46.60;;;;;;5052445;28;20233;-90
2023/03/22 07:39:25;;;;;;;2.70;1.80;;;13.20;43.40;;;;;;5038396;28;20248;-89
2023/03/22 07:41:51;;;;;;;2.88;1.63;;;13.30;41.30;;;;;;5038832;28;20712;-90
2023/03/22 07:44:19;;;;;;;4.05;1.98;;;13.60;39.30;;;;;;5055817;28;20205;-90
2023/03/22 07:46:46;;;;;;;3.05;2.13;;;13.80;42.40;;;;;;5053154;28;20206;-91
2023/03/22 07:49:13;;;;;;;3.05;1.77;;;13.90;39.00;;;;;;5040454;28;20200;-90
2023/03/22 07:51:42;;;;;;;3.25;2.38;;;14.00;38.30;;;;;;5059158;28;20209;-91
2023/03/22 07:54:09;;;;;;;3.28;2.20;;;14.10;37.00;;;;;;5051750;28;20561;-90
2023/03/22 07:56:36;;;;;;;3.22;2.22;;;14.20;36.50;;;;;;5054647;28;20198;-90
2023/03/22 07:59:05;;;;;;;6.63;2.35;;;14.30;35.10;;;;;;5056412;28;20650;-90
2023/03/22 08:01:32;;;;;;;3.40;2.70;;;14.50;36.60;;;;;;5043971;28;20305;-91
2023/03/22 08:03:59;;;;;;;4.13;2.08;;;14.80;34.50;;;;;;5037700;28;20183;-89
2023/03/22 08:14:08;;;;;;;3.17;2.38;;;16.50;27.80;;;;;;5057960;28;20178;-88
2023/03/22 08:16:37;;;;;;;5.10;2.53;;;16.40;29.00;;;;;;5057448;28;20255;-89
2023/03/22 08:19:04;;;;;;;2.95;2.65;;;16.10;28.80;;;;;;5057877;28;20202;-88
2023/03/22 08:24:58;;;;;;;4.50;2.60;;;15.60;28.30;;;;;;5056991;28;20165;-88
2023/03/22 08:30:57;;;;;;;7.43;2.72;;;15.40;29.00;;;;;;5045067;28;20642;-90
2023/03/22 08:33:30;;;;;;;3.40;3.10;;;15.40;30.60;;;;;;5046917;28;20186;-90
2023/03/22 08:36:06;;;;;;;3.00;2.67;;;15.30;32.70;;;;;;5054905;28;20531;-87
2023/03/22 08:38:33;;;;;;;7.97;3.88;;;15.20;32.90;;;;;;5053213;28;20228;-90
2023/03/22 08:41:00;;;;;;;6.30;3.70;;;15.20;32.60;;;;;;5038764;28;20226;-91
2023/03/22 08:43:27;;;;;;;6.85;4.25;;;15.20;30.50;;;;;;5056431;28;20200;-91
2023/03/22 08:45:55;;;;;;;6.63;4.03;;;15.30;32.70;;;;;;5056569;28;20539;-90
2023/03/22 08:48:22;;;;;;;5.45;4.95;;;15.70;31.60;;;;;;5038944;28;20205;-89
2023/03/22 09:23:50;;;;;;;5.90;4.18;;;18.30;22.50;;;;;;5376838;22;20642;-90
2023/03/22 09:26:42;;;;;;;6.35;4.20;;;18.50;22.10;;;;;;5040475;28;20244;-90
2023/03/22 09:50:12;;;;;;;4.07;3.42;;;21.20;15.40;;;;;;5037133;28;20185;-88
2023/03/22 09:56:21;;;;;;;4.07;3.42;;;21.40;16.00;;;;;;5040516;28;20177;-89
2023/03/22 09:58:53;;;;;;;3.33;3.03;;;21.40;14.70;;;;;;5015360;28;20203;-91
2023/03/22 10:14:20;;;;;;;4.13;2.92;;;22.00;13.10;;;;;;4983856;28;20259;-87
2023/03/22 10:16:48;;;;;;;3.10;2.80;;;22.40;12.50;;;;;;5068685;28;20194;-86
2023/03/22 10:19:21;;;;;;;3.47;2.88;;;22.00;13.00;;;;;;5030804;28;20190;-87
2023/03/22 10:39:53;;;;;;;4.18;2.60;;;20.90;14.70;;;;;;5034459;28;20241;-90
2023/03/22 10:42:23;;;;;;;4.40;2.70;;;20.60;15.80;;;;;;5039046;28;20214;-90
2023/03/22 10:45:05;;;;;;;2.72;2.40;;;20.50;15.80;;;;;;5039420;28;20191;-90
2023/03/22 10:47:36;;;;;;;2.92;2.40;;;21.00;15.80;;;;;;5040665;28;20205;-90
2023/03/22 10:50:05;;;;;;;3.97;2.30;;;20.80;15.30;;;;;;5039727;28;20191;-91
2023/03/22 10:52:41;;;;;;;2.60;2.10;;;20.70;16.00;;;;;;5037683;28;20221;-91
2023/03/22 11:12:03;;;;;;;3.58;2.13;;;20.70;13.00;;;;;;5053079;28;20194;-90
2023/03/22 11:14:34;;;;;;;2.38;2.00;;;20.60;13.10;;;;;;5022780;28;20225;-90
2023/03/22 11:17:11;;;;;;;1.80;1.65;;;20.30;12.60;;;;;;5041219;28;20285;-90
2023/03/22 11:19:40;;;;;;;2.70;1.80;;;20.20;14.80;;;;;;5043750;28;20214;-92
2023/03/22 11:32:34;;;;;;;2.97;2.20;;;19.80;13.10;;;;;;5175051;23;20237;-89
2023/03/22 11:35:24;;;;;;;3.97;2.25;;;19.70;15.60;;;;;;4996587;28;20199;-89
2023/03/22 11:44:45;;;;;;;1.70;1.60;;;19.50;14.60;;;;;;5014842;28;20188;-89
2023/03/22 11:47:14;;;;;;;3.28;1.90;;;19.70;15.80;;;;;;5015696;28;20199;-91
2023/03/22 11:49:46;;;;;;;3.85;2.03;;;19.70;14.20;;;;;;5014800;28;20309;-90
2023/03/22 11:52:20;;;;;;;3.08;2.15;;;19.70;15.50;;;;;;5011080;28;20380;-92
2023/03/22 11:54:48;;;;;;;3.20;2.00;;;19.60;15.40;;;;;;5012483;28;20614;-90
2023/03/22 11:57:17;;;;;;;5.00;1.85;;;19.70;15.20;;;;;;4987240;28;20237;-91
2023/03/22 11:59:53;;;;;;;4.43;2.05;;;19.70;15.50;;;;;;5011093;28;20215;-90
2023/03/22 12:02:25;;;;;;;3.22;2.10;;;19.80;14.60;;;;;;5010986;28;20238;-90
2023/03/22 12:05:00;;;;;;;2.40;2.10;;;19.90;14.90;;;;;;5018248;28;20195;-90
2023/03/22 12:07:30;;;;;;;3.50;2.42;;;19.90;14.10;;;;;;5023221;28;20268;-90
2023/03/22 12:10:02;;;;;;;2.60;2.40;;;19.90;15.70;;;;;;5045785;28;20189;-90
2023/03/22 12:12:31;;;;;;;2.78;1.98;;;19.90;12.80;;;;;;5043010;28;20187;-90
2023/03/22 12:15:03;;;;;;;2.63;1.90;;;19.90;13.90;;;;;;5020930;28;20199;-90
2023/03/22 12:17:40;;;;;;;2.67;2.08;;;19.70;12.60;;;;;;5007583;28;20199;-90
2023/03/22 12:20:21;;;;;;;2.13;1.90;;;19.50;13.10;;;;;;5023747;28;20191;-91
2023/03/22 12:30:33;;;;;;;4.47;2.08;;;19.50;13.30;;;;;;5014294;28;20224;-92
2023/03/22 12:33:05;;;;;;;3.00;2.03;;;19.40;13.80;;;;;;5014330;28;20209;-92
2023/03/22 12:55:49;;;;;;;1.95;1.80;;;19.30;13.30;;;;;;4958130;29;20236;-90
2023/03/22 13:12:30;;;;;;;3.15;1.67;;;19.60;13.30;;;;;;4981063;28;20194;-90
2023/03/22 13:18:29;;;;;;;2.92;1.73;;;19.60;14.80;;;;;;4978465;28;20164;-89
2023/03/22 13:30:27;;;;;;;2.20;1.55;;;19.40;13.00;;;;;;5023020;28;20179;-91
2023/03/22 13:33:02;;;;;;;2.13;1.92;;;19.30;12.30;;;;;;5017597;28;20203;-90
2023/03/22 13:35:39;;;;;;;2.58;1.80;;;19.20;12.90;;;;;;5023526;28;20213;-91
2023/03/22 13:38:09;;;;;;;1.85;1.65;;;19.30;14.30;;;;;;5126052;23;20233;-90
2023/03/22 13:40:47;;;;;;;2.67;1.70;;;19.20;12.80;;;;;;5059600;28;20197;-91
2023/03/22 13:54:11;;;;;;;2.42;1.45;;;19.40;13.40;;;;;;5057758;28;20227;-90
2023/03/22 13:56:55;;;;;;;3.55;1.70;;;19.30;12.20;;;;;;5073275;28;20205;-90
2023/03/22 14:02:52;;;;;;;4.55;1.90;;;19.20;13.40;;;;;;5035536;28;20218;-90
2023/03/22 14:05:22;;;;;;;2.85;1.70;;;18.90;13.40;;;;;;5036626;28;20228;-91
2023/03/22 14:08:00;;;;;;;2.40;1.70;;;18.80;14.80;;;;;;5039688;28;20576;-90
2023/03/22 14:10:48;;;;;;;2.97;1.55;;;18.80;13.20;;;;;;5056872;28;20213;-90
2023/03/22 14:13:20;;;;;;;3.08;1.70;;;18.70;13.00;;;;;;5024569;28;20209;-90
2023/03/22 14:15:51;;;;;;;5.60;1.90;;;18.70;13.30;;;;;;5036109;28;20213;-90
2023/03/22 14:18:30;;;;;;;1.85;1.58;;;18.60;13.60;;;;;;5036763;28;20584;-90
2023/03/22 14:21:00;;;;;;;1.60;1.50;;;18.60;13.90;;;;;;5035548;28;20272;-91
2023/03/22 14:23:31;;;;;;;3.05;1.48;;;18.60;14.20;;;;;;5033393;28;20635;-90
2023/03/22 14:26:16;;;;;;;1.65;1.55;;;18.50;13.80;;;;;;5036823;28;20187;-91
2023/03/22 14:32:28;;;;;;;1.70;1.60;;;18.60;13.90;;;;;;5057370;28;20169;-90
2023/03/22 14:35:01;;;;;;;2.17;1.52;;;18.70;14.20;;;;;;5050432;28;20663;-90
2023/03/22 14:45:16;;;;;;;3.78;1.60;;;19.20;12.50;;;;;;5036679;28;20665;-91
2023/03/22 14:51:32;;;;;;;3.28;1.60;;;19.20;13.30;;;;;;5036672;28;20162;-90
2023/03/22 14:54:03;;;;;;;2.63;1.50;;;19.20;13.80;;;;;;5055950;28;20190;-89
2023/03/22 14:56:38;;;;;;;3.40;1.58;;;19.10;13.90;;;;;;5056877;28;20198;-90
2023/03/22 14:59:09;;;;;;;2.38;1.80;;;19.00;14.20;;;;;;5040691;28;20202;-90
2023/03/22 15:02:16;;;;;;;2.17;1.60;;;19.10;13.60;;;;;;5318316;22;20236;-89
2023/03/22 15:04:46;;;;;;;3.72;1.30;;;18.90;12.90;;;;;;5035807;28;20198;-89
2023/03/22 15:07:13;;;;;;;2.58;1.40;;;18.90;13.00;;;;;;5034540;28;20206;-89
2023/03/22 15:09:40;;;;;;;3.38;1.50;;;18.70;13.70;;;;;;5038021;28;20186;-89
2023/03/22 15:12:23;;;;;;;7.03;1.45;;;18.70;13.60;;;;;;5036423;28;20206;-89
2023/03/22 15:42:17;;;;;;;3.17;1.70;;;18.70;13.60;;;;;;5026549;28;20222;-90
2023/03/22 15:44:53;;;;;;;4.60;1.80;;;18.60;13.10;;;;;;5033964;28;20203;-90
2023/03/22 15:47:21;;;;;;;3.83;1.83;;;18.50;13.20;;;;;;5035780;28;20182;-90
2023/03/22 15:49:51;;;;;;;2.00;1.50;;;18.60;13.10;;;;;;5045695;28;20185;-89
2023/03/22 16:02:30;;;;;;;3.42;1.70;;;18.30;14.30;;;;;;5029549;28;20209;-92
2023/03/22 16:08:01;;;;;;;2.75;1.55;;;18.20;13.30;;;;;;5037253;28;20202;-90
2023/03/22 16:10:29;;;;;;;3.72;1.80;;;18.10;13.60;;;;;;5020979;28;20198;-91
2023/03/22 16:12:59;;;;;;;2.03;1.50;;;18.00;13.80;;;;;;5028987;28;20199;-88
2023/03/22 16:18:22;;;;;;;3.83;1.65;;;17.90;14.00;;;;;;5024426;28;20210;-89
2023/03/22 16:23:31;;;;;;;4.10;1.52;;;17.90;13.60;;;;;;5023865;28;20227;-89
2023/03/22 16:25:58;;;;;;;2.17;1.50;;;17.80;13.90;;;;;;5031874;28;20198;-86
2023/03/22 16:28:26;;;;;;;3.05;1.80;;;17.80;13.30;;;;;;5034116;28;20213;-87
2023/03/22 16:30:54;;;;;;;3.85;2.00;;;17.70;13.30;;;;;;5047327;28;20191;-89
2023/03/22 16:33:21;;;;;;;6.07;1.80;;;17.70;13.60;;;;;;5036059;28;20638;-88
2023/03/22 16:35:48;;;;;;;6.00;1.70;;;17.60;13.90;;;;;;5052243;28;20209;-89
2023/03/22 16:38:16;;;;;;;3.33;1.52;;;17.60;13.30;;;;;;5052259;28;20214;-90
2023/03/22 16:40:47;;;;;;;2.67;1.73;;;17.50;13.40;;;;;;5035101;28;20206;-92
2023/03/22 17:04:37;;;;;;;1.60;1.50;;;16.80;15.20;;;;;;5050602;28;20182;-89
2023/03/22 17:15:53;;;;;;;3.42;2.03;;;16.30;16.10;;;;;;5020276;28;20202;-91
2023/03/22 17:18:20;;;;;;;4.57;2.13;;;16.30;16.20;;;;;;5038178;28;20643;-91
2023/03/22 17:24:00;;;;;;;3.72;2.20;;;16.00;17.20;;;;;;5062433;28;20217;-92
2023/03/22 17:26:27;;;;;;;2.72;2.15;;;15.90;17.60;;;;;;5048359;28;20236;-90
2023/03/22 17:32:06;;;;;;;4.22;2.03;;;15.60;17.90;;;;;;5131477;27;20592;-89
2023/03/22 17:34:33;;;;;;;3.35;2.47;;;15.40;18.30;;;;;;5102026;28;20553;-89
2023/03/22 17:37:00;;;;;;;3.42;2.33;;;15.30;18.80;;;;;;5092149;28;20191;-91
2023/03/22 17:42:13;;;;;;;8.43;2.70;;;15.10;19.20;;;;;;5095909;28;20231;-93
2023/03/22 17:44:41;;;;;;;7.32;2.80;;;15.00;19.50;;;;;;5103744;28;20203;-91
2023/03/22 17:47:13;;;;;;;17.33;4.00;;;14.90;19.40;;;;;;5106250;28;20196;-91
2023/03/22 17:50:00;;;;;;;17.55;3.65;;;14.90;20.00;;;;;;5079377;28;20269;-90
2023/03/22 17:52:27;;;;;;;6.20;3.10;;;14.90;19.50;;;;;;5085974;22;20230;-90
2023/03/22 17:54:54;;;;;;;6.70;3.00;;;14.80;20.60;;;;;;4987107;28;20203;-92
2023/03/22 17:57:21;;;;;;;7.15;3.05;;;14.80;20.00;;;;;;5026695;28;20595;-92
2023/03/22 17:59:48;;;;;;;4.68;2.60;;;14.70;20.30;;;;;;5026313;28;20612;-91
2023/03/22 18:04:58;;;;;;;8.23;3.30;;;14.40;20.60;;;;;;5017390;28;20663;-92
2023/03/22 18:07:25;;;;;;;8.88;3.47;;;14.40;21.60;;;;;;5032359;28;20199;-90
2023/03/22 18:12:27;;;;;;;5.55;2.33;;;14.30;20.50;;;;;;5082200;23;20220;-90
2023/03/22 18:14:54;;;;;;;4.82;2.20;;;14.30;20.90;;;;;;5083133;28;20197;-93
2023/03/22 18:20:07;;;;;;;4.57;2.13;;;14.10;22.40;;;;;;5059422;28;20210;-90
2023/03/22 18:22:34;;;;;;;5.13;2.67;;;14.00;21.90;;;;;;5068157;28;20304;-91
2023/03/22 18:25:02;;;;;;;6.70;2.50;;;13.90;23.50;;;;;;5066985;28;20236;-92
2023/03/22 18:27:31;;;;;;;6.18;2.78;;;13.80;23.90;;;;;;5067041;28;20197;-91
2023/03/22 18:30:01;;;;;;;4.25;2.47;;;13.80;24.30;;;;;;5067598;28;20224;-91
2023/03/22 18:32:41;;;;;;;6.10;2.85;;;13.70;24.00;;;;;;5070399;28;20202;-91
2023/03/22 18:35:13;;;;;;;5.93;2.80;;;13.60;24.60;;;;;;5068532;28;20296;-91
2023/03/22 18:38:03;;;;;;;8.23;2.80;;;13.50;26.60;;;;;;5064684;28;20221;-89
2023/03/22 18:40:31;;;;;;;5.93;2.78;;;13.40;26.50;;;;;;5076228;28;20209;-90
2023/03/22 18:42:58;;;;;;;6.22;3.20;;;13.40;26.50;;;;;;5062672;28;20503;-91
2023/03/22 18:45:26;;;;;;;4.50;3.03;;;13.40;27.60;;;;;;5062637;28;20272;-90
2023/03/22 18:47:55;;;;;;;5.95;2.50;;;13.30;26.40;;;;;;5054088;28;20646;-90
2023/03/22 18:50:22;;;;;;;3.88;2.40;;;13.30;26.40;;;;;;5059038;28;20225;-91
2023/03/22 18:52:50;;;;;;;7.22;3.03;;;13.20;26.40;;;;;;5057956;28;20198;-90
2023/03/22 18:55:17;;;;;;;9.15;2.80;;;13.10;26.20;;;;;;5062434;28;20195;-90
2023/03/22 18:57:45;;;;;;;9.52;4.80;;;13.10;26.30;;;;;;5065504;28;20208;-90
2023/03/22 19:00:17;;;;;;;11.82;4.60;;;13.10;26.20;;;;;;5057232;28;20685;-90
2023/03/22 19:02:44;;;;;;;8.27;5.05;;;13.10;26.80;;;;;;5064161;28;20623;-89
2023/03/22 19:07:58;;;;;;;9.23;4.55;;;13.00;28.10;;;;;;5063766;28;20212;-90
2023/03/22 19:13:12;;;;;;;11.15;4.10;;;12.90;28.70;;;;;;5051988;28;20216;-89
2023/03/22 19:15:39;;;;;;;7.75;4.00;;;12.80;29.90;;;;;;5057916;28;20206;-89
2023/03/22 19:18:08;;;;;;;11.43;5.45;;;12.70;30.40;;;;;;5060595;28;20198;-88
2023/03/22 19:20:37;;;;;;;8.93;6.97;;;12.60;31.00;;;;;;5053825;28;20216;-90
2023/03/22 19:25:45;;;;;;;9.25;6.22;;;12.40;30.60;;;;;;5054849;28;20771;-90
2023/03/22 19:28:12;;;;;;;8.68;5.38;;;12.40;30.60;;;;;;5055191;28;20285;-90
2023/03/22 19:30:39;;;;;;;7.85;4.70;;;12.30;31.10;;;;;;5032004;28;20752;-90
2023/03/22 19:33:06;;;;;;;6.22;4.63;;;12.30;30.90;;;;;;5056982;28;20209;-90
2023/03/22 19:35:33;;;;;;;9.70;4.30;;;12.30;31.90;;;;;;5056997;28;20646;-91
2023/03/22 19:38:02;;;;;;;6.90;4.10;;;12.30;32.60;;;;;;5057135;28;20210;-90
2023/03/22 19:40:29;;;;;;;7.63;4.30;;;12.30;32.60;;;;;;5038606;28;20247;-90
2023/03/22 19:42:56;;;;;;;9.30;4.85;;;12.20;32.70;;;;;;5047968;28;20244;-88
2023/03/22 19:45:24;;;;;;;5.80;3.70;;;12.20;36.70;;;;;;5052019;28;20204;-89
2023/03/22 19:47:51;;;;;;;9.15;4.38;;;12.10;36.10;;;;;;5050793;28;20206;-90
2023/03/22 19:50:18;;;;;;;8.63;4.65;;;12.10;37.00;;;;;;5054632;28;20693;-91
2023/03/22 19:52:45;;;;;;;3.75;3.22;;;12.10;37.50;;;;;;5050900;28;20241;-91
2023/03/22 20:00:36;;;;;;;7.50;5.13;;;12.10;35.90;;;;;;5049879;28;20205;-91
2023/03/22 20:03:04;;;;;;;8.77;5.35;;;12.10;37.10;;;;;;5058135;28;20268;-89